sensor_id;sensor_type;location;lat;lon;timestamp;pressure;altitude;pressure_sealevel;temperature
82636;BMP280;72317;37.280;-121.948;2023-08-31T00:00:50;100224.53;;;34.39
82636;BMP280;72317;37.280;-121.948;2023-08-31T00:03:19;100230.44;;;34.21
82636;BMP280;72317;37.280;-121.948;2023-08-31T00:05:52;100224.66;;;33.95
82636;BMP280;72317;37.280;-121.948;2023-08-31T00:08:18;100222.44;;;33.86
82636;BMP280;72317;37.280;-121.948;2023-08-31T00:10:55;100228.31;;;33.67
82636;BMP280;72317;37.280;-121.948;2023-08-31T00:13:26;100232.00;;;33.70
82636;BMP280;72317;37.280;-121.948;2023-08-31T00:15:56;100225.41;;;33.58
82636;BMP280;72317;37.280;-121.948;2023-08-31T00:18:23;100233.84;;;33.53
82636;BMP280;72317;37.280;-121.948;2023-08-31T00:20:50;100237.66;;;33.42
82636;BMP280;72317;37.280;-121.948;2023-08-31T00:23:17;100227.56;;;33.30
82636;BMP280;72317;37.280;-121.948;2023-08-31T00:25:47;100230.47;;;33.24
82636;BMP280;72317;37.280;-121.948;2023-08-31T00:28:17;100234.28;;;33.07
82636;BMP280;72317;37.280;-121.948;2023-08-31T00:30:44;100222.19;;;32.95
82636;BMP280;72317;37.280;-121.948;2023-08-31T00:33:12;100221.97;;;32.85
82636;BMP280;72317;37.280;-121.948;2023-08-31T00:35:39;100227.09;;;32.89
82636;BMP280;72317;37.280;-121.948;2023-08-31T00:38:14;100221.94;;;32.78
82636;BMP280;72317;37.280;-121.948;2023-08-31T00:40:42;100230.47;;;32.60
82636;BMP280;72317;37.280;-121.948;2023-08-31T00:43:10;100228.78;;;32.57
82636;BMP280;72317;37.280;-121.948;2023-08-31T00:45:37;100230.25;;;32.50
82636;BMP280;72317;37.280;-121.948;2023-08-31T00:48:08;100237.41;;;32.53
82636;BMP280;72317;37.280;-121.948;2023-08-31T00:50:34;100227.25;;;32.41
82636;BMP280;72317;37.280;-121.948;2023-08-31T00:53:01;100225.75;;;32.32
82636;BMP280;72317;37.280;-121.948;2023-08-31T00:55:29;100231.50;;;32.14
82636;BMP280;72317;37.280;-121.948;2023-08-31T00:57:55;100226.63;;;32.00
82636;BMP280;72317;37.280;-121.948;2023-08-31T01:00:25;100225.84;;;31.92
82636;BMP280;72317;37.280;-121.948;2023-08-31T01:03:12;100226.97;;;31.96
82636;BMP280;72317;37.280;-121.948;2023-08-31T01:05:46;100231.81;;;31.83
82636;BMP280;72317;37.280;-121.948;2023-08-31T01:14:27;100221.25;;;31.66
82636;BMP280;72317;37.280;-121.948;2023-08-31T01:16:58;100222.63;;;31.40
82636;BMP280;72317;37.280;-121.948;2023-08-31T01:19:43;100220.16;;;31.49
82636;BMP280;72317;37.280;-121.948;2023-08-31T01:22:31;100221.25;;;31.46
82636;BMP280;72317;37.280;-121.948;2023-08-31T01:25:01;100218.63;;;31.41
82636;BMP280;72317;37.280;-121.948;2023-08-31T01:27:31;100219.59;;;31.30
82636;BMP280;72317;37.280;-121.948;2023-08-31T01:29:57;100215.66;;;31.18
82636;BMP280;72317;37.280;-121.948;2023-08-31T01:32:24;100219.44;;;31.15
82636;BMP280;72317;37.280;-121.948;2023-08-31T01:34:53;100213.28;;;31.02
82636;BMP280;72317;37.280;-121.948;2023-08-31T01:37:30;100204.38;;;30.89
82636;BMP280;72317;37.280;-121.948;2023-08-31T01:40:31;100216.34;;;30.99
82636;BMP280;72317;37.280;-121.948;2023-08-31T01:43:01;100217.94;;;30.81
82636;BMP280;72317;37.280;-121.948;2023-08-31T01:45:30;100219.75;;;30.92
82636;BMP280;72317;37.280;-121.948;2023-08-31T01:47:59;100217.38;;;30.96
82636;BMP280;72317;37.280;-121.948;2023-08-31T01:50:26;100208.38;;;30.75
82636;BMP280;72317;37.280;-121.948;2023-08-31T01:52:57;100212.06;;;30.77
82636;BMP280;72317;37.280;-121.948;2023-08-31T01:55:25;100218.06;;;30.50
82636;BMP280;72317;37.280;-121.948;2023-08-31T01:57:51;100219.88;;;30.48
82636;BMP280;72317;37.280;-121.948;2023-08-31T02:00:21;100216.69;;;30.44
82636;BMP280;72317;37.280;-121.948;2023-08-31T02:02:48;100222.81;;;30.37
82636;BMP280;72317;37.280;-121.948;2023-08-31T02:05:14;100222.38;;;30.20
82636;BMP280;72317;37.280;-121.948;2023-08-31T02:07:43;100210.50;;;30.30
82636;BMP280;72317;37.280;-121.948;2023-08-31T02:10:22;100219.34;;;30.23
82636;BMP280;72317;37.280;-121.948;2023-08-31T02:12:48;100217.84;;;29.96
82636;BMP280;72317;37.280;-121.948;2023-08-31T02:15:17;100215.00;;;30.02
82636;BMP280;72317;37.280;-121.948;2023-08-31T02:17:43;100226.53;;;29.95
82636;BMP280;72317;37.280;-121.948;2023-08-31T02:20:10;100224.56;;;29.95
82636;BMP280;72317;37.280;-121.948;2023-08-31T02:22:39;100222.16;;;32.87
82636;BMP280;72317;37.280;-121.948;2023-08-31T02:25:07;100219.69;;;31.99
82636;BMP280;72317;37.280;-121.948;2023-08-31T02:27:33;100232.78;;;31.93
82636;BMP280;72317;37.280;-121.948;2023-08-31T02:29:59;100219.31;;;33.15
82636;BMP280;72317;37.280;-121.948;2023-08-31T02:32:26;100225.34;;;30.86
82636;BMP280;72317;37.280;-121.948;2023-08-31T02:34:53;100215.09;;;33.14
82636;BMP280;72317;37.280;-121.948;2023-08-31T02:37:22;100222.78;;;30.62
82636;BMP280;72317;37.280;-121.948;2023-08-31T02:39:51;100226.00;;;32.42
82636;BMP280;72317;37.280;-121.948;2023-08-31T02:42:25;100233.34;;;30.46
82636;BMP280;72317;37.280;-121.948;2023-08-31T02:44:55;100220.59;;;32.64
82636;BMP280;72317;37.280;-121.948;2023-08-31T02:47:22;100221.66;;;30.32
82636;BMP280;72317;37.280;-121.948;2023-08-31T02:49:48;100225.13;;;32.19
82636;BMP280;72317;37.280;-121.948;2023-08-31T02:52:19;100224.78;;;30.10
82636;BMP280;72317;37.280;-121.948;2023-08-31T02:54:45;100235.41;;;31.98
82636;BMP280;72317;37.280;-121.948;2023-08-31T02:57:11;100225.63;;;30.05
82636;BMP280;72317;37.280;-121.948;2023-08-31T02:59:38;100236.63;;;31.69
82636;BMP280;72317;37.280;-121.948;2023-08-31T03:02:04;100237.28;;;29.93
82636;BMP280;72317;37.280;-121.948;2023-08-31T03:04:31;100241.03;;;31.52
82636;BMP280;72317;37.280;-121.948;2023-08-31T03:06:57;100246.41;;;29.83
82636;BMP280;72317;37.280;-121.948;2023-08-31T03:09:23;100241.53;;;31.30
82636;BMP280;72317;37.280;-121.948;2023-08-31T03:11:49;100244.53;;;30.03
82636;BMP280;72317;37.280;-121.948;2023-08-31T03:14:15;100240.72;;;30.76
82636;BMP280;72317;37.280;-121.948;2023-08-31T03:16:42;100246.59;;;30.54
82636;BMP280;72317;37.280;-121.948;2023-08-31T03:19:13;100253.75;;;30.45
82636;BMP280;72317;37.280;-121.948;2023-08-31T03:21:40;100250.06;;;29.36
82636;BMP280;72317;37.280;-121.948;2023-08-31T03:24:07;100255.06;;;28.95
82636;BMP280;72317;37.280;-121.948;2023-08-31T03:26:34;100260.25;;;28.75
82636;BMP280;72317;37.280;-121.948;2023-08-31T03:29:00;100268.88;;;28.55
82636;BMP280;72317;37.280;-121.948;2023-08-31T03:31:27;100261.22;;;28.53
82636;BMP280;72317;37.280;-121.948;2023-08-31T03:33:53;100267.19;;;28.52
82636;BMP280;72317;37.280;-121.948;2023-08-31T03:36:19;100274.66;;;28.46
82636;BMP280;72317;37.280;-121.948;2023-08-31T03:38:45;100265.88;;;28.34
82636;BMP280;72317;37.280;-121.948;2023-08-31T03:41:11;100278.66;;;28.16
82636;BMP280;72317;37.280;-121.948;2023-08-31T03:43:38;100279.25;;;28.03
82636;BMP280;72317;37.280;-121.948;2023-08-31T03:46:04;100286.09;;;28.15
82636;BMP280;72317;37.280;-121.948;2023-08-31T03:48:30;100282.44;;;28.07
82636;BMP280;72317;37.280;-121.948;2023-08-31T03:50:56;100286.91;;;27.70
82636;BMP280;72317;37.280;-121.948;2023-08-31T03:53:23;100284.88;;;27.70
82636;BMP280;72317;37.280;-121.948;2023-08-31T03:55:49;100282.13;;;27.81
82636;BMP280;72317;37.280;-121.948;2023-08-31T03:58:15;100288.34;;;27.76
82636;BMP280;72317;37.280;-121.948;2023-08-31T04:00:42;100280.91;;;27.20
82636;BMP280;72317;37.280;-121.948;2023-08-31T04:03:09;100281.88;;;27.34
82636;BMP280;72317;37.280;-121.948;2023-08-31T04:05:35;100287.00;;;27.48
82636;BMP280;72317;37.280;-121.948;2023-08-31T04:08:02;100287.28;;;27.39
82636;BMP280;72317;37.280;-121.948;2023-08-31T04:10:28;100285.88;;;27.16
82636;BMP280;72317;37.280;-121.948;2023-08-31T04:12:57;100297.75;;;27.13
82636;BMP280;72317;37.280;-121.948;2023-08-31T04:15:23;100281.41;;;27.13
82636;BMP280;72317;37.280;-121.948;2023-08-31T04:17:50;100286.88;;;27.24
82636;BMP280;72317;37.280;-121.948;2023-08-31T04:20:16;100284.84;;;27.30
82636;BMP280;72317;37.280;-121.948;2023-08-31T04:22:42;100279.16;;;27.34
82636;BMP280;72317;37.280;-121.948;2023-08-31T04:25:08;100283.00;;;27.49
82636;BMP280;72317;37.280;-121.948;2023-08-31T04:27:34;100282.31;;;27.43
82636;BMP280;72317;37.280;-121.948;2023-08-31T04:30:02;100285.59;;;27.31
82636;BMP280;72317;37.280;-121.948;2023-08-31T04:32:29;100292.53;;;27.26
82636;BMP280;72317;37.280;-121.948;2023-08-31T04:34:55;100283.59;;;27.26
82636;BMP280;72317;37.280;-121.948;2023-08-31T04:37:21;100281.75;;;26.77
82636;BMP280;72317;37.280;-121.948;2023-08-31T04:39:48;100281.75;;;26.83
82636;BMP280;72317;37.280;-121.948;2023-08-31T04:42:14;100279.28;;;26.79
82636;BMP280;72317;37.280;-121.948;2023-08-31T04:44:42;100279.78;;;26.94
82636;BMP280;72317;37.280;-121.948;2023-08-31T04:47:08;100273.81;;;26.90
82636;BMP280;72317;37.280;-121.948;2023-08-31T04:49:35;100279.22;;;27.12
82636;BMP280;72317;37.280;-121.948;2023-08-31T04:52:01;100273.03;;;27.11
82636;BMP280;72317;37.280;-121.948;2023-08-31T04:54:27;100274.81;;;26.93
82636;BMP280;72317;37.280;-121.948;2023-08-31T04:56:53;100275.06;;;26.89
82636;BMP280;72317;37.280;-121.948;2023-08-31T04:59:20;100274.09;;;26.65
82636;BMP280;72317;37.280;-121.948;2023-08-31T05:01:46;100273.88;;;26.57
82636;BMP280;72317;37.280;-121.948;2023-08-31T05:04:12;100272.41;;;26.56
82636;BMP280;72317;37.280;-121.948;2023-08-31T05:06:38;100272.38;;;26.40
82636;BMP280;72317;37.280;-121.948;2023-08-31T05:09:04;100270.91;;;26.06
82636;BMP280;72317;37.280;-121.948;2023-08-31T05:11:32;100268.19;;;26.17
82636;BMP280;72317;37.280;-121.948;2023-08-31T05:13:58;100279.81;;;26.34
82636;BMP280;72317;37.280;-121.948;2023-08-31T05:16:24;100273.84;;;26.08
82636;BMP280;72317;37.280;-121.948;2023-08-31T05:18:50;100272.56;;;25.82
82636;BMP280;72317;37.280;-121.948;2023-08-31T05:21:16;100282.47;;;26.01
82636;BMP280;72317;37.280;-121.948;2023-08-31T05:23:42;100269.88;;;26.04
82636;BMP280;72317;37.280;-121.948;2023-08-31T05:26:08;100254.81;;;26.14
82636;BMP280;72317;37.280;-121.948;2023-08-31T05:28:35;100266.44;;;26.09
82636;BMP280;72317;37.280;-121.948;2023-08-31T05:31:01;100260.00;;;25.26
82636;BMP280;72317;37.280;-121.948;2023-08-31T05:33:29;100263.81;;;25.45
82636;BMP280;72317;37.280;-121.948;2023-08-31T05:36:01;100255.13;;;25.47
82636;BMP280;72317;37.280;-121.948;2023-08-31T05:38:29;100250.97;;;25.57
82636;BMP280;72317;37.280;-121.948;2023-08-31T05:41:04;100260.44;;;25.72
82636;BMP280;72317;37.280;-121.948;2023-08-31T05:43:32;100256.66;;;25.48
82636;BMP280;72317;37.280;-121.948;2023-08-31T05:45:58;100259.28;;;25.31
82636;BMP280;72317;37.280;-121.948;2023-08-31T05:48:24;100250.75;;;25.66
82636;BMP280;72317;37.280;-121.948;2023-08-31T05:50:50;100253.00;;;25.62
82636;BMP280;72317;37.280;-121.948;2023-08-31T05:53:16;100255.91;;;25.53
82636;BMP280;72317;37.280;-121.948;2023-08-31T05:55:42;100254.41;;;25.46
82636;BMP280;72317;37.280;-121.948;2023-08-31T05:58:08;100251.06;;;25.10
82636;BMP280;72317;37.280;-121.948;2023-08-31T06:00:35;100255.84;;;25.31
82636;BMP280;72317;37.280;-121.948;2023-08-31T06:03:01;100251.56;;;25.19
82636;BMP280;72317;37.280;-121.948;2023-08-31T06:05:30;100246.09;;;25.08
82636;BMP280;72317;37.280;-121.948;2023-08-31T06:07:57;100245.16;;;24.80
82636;BMP280;72317;37.280;-121.948;2023-08-31T06:10:24;100243.72;;;24.85
82636;BMP280;72317;37.280;-121.948;2023-08-31T06:12:50;100245.91;;;24.81
82636;BMP280;72317;37.280;-121.948;2023-08-31T06:15:17;100262.28;;;24.55
82636;BMP280;72317;37.280;-121.948;2023-08-31T06:17:43;100253.63;;;24.57
82636;BMP280;72317;37.280;-121.948;2023-08-31T06:20:10;100247.31;;;24.65
82636;BMP280;72317;37.280;-121.948;2023-08-31T06:22:36;100246.78;;;24.67
82636;BMP280;72317;37.280;-121.948;2023-08-31T06:25:03;100245.69;;;24.53
82636;BMP280;72317;37.280;-121.948;2023-08-31T06:27:31;100246.03;;;24.61
82636;BMP280;72317;37.280;-121.948;2023-08-31T06:29:57;100238.44;;;24.40
82636;BMP280;72317;37.280;-121.948;2023-08-31T06:32:23;100242.09;;;24.37
82636;BMP280;72317;37.280;-121.948;2023-08-31T06:34:49;100245.75;;;24.28
82636;BMP280;72317;37.280;-121.948;2023-08-31T06:37:15;100244.28;;;24.33
82636;BMP280;72317;37.280;-121.948;2023-08-31T06:39:41;100240.38;;;24.34
82636;BMP280;72317;37.280;-121.948;2023-08-31T06:42:08;100237.97;;;24.41
82636;BMP280;72317;37.280;-121.948;2023-08-31T06:44:34;100233.31;;;24.42
82636;BMP280;72317;37.280;-121.948;2023-08-31T06:47:00;100234.19;;;24.28
82636;BMP280;72317;37.280;-121.948;2023-08-31T06:49:26;100231.34;;;24.17
82636;BMP280;72317;37.280;-121.948;2023-08-31T06:51:53;100233.06;;;24.14
82636;BMP280;72317;37.280;-121.948;2023-08-31T06:54:19;100233.84;;;23.95
82636;BMP280;72317;37.280;-121.948;2023-08-31T06:56:45;100235.94;;;23.85
82636;BMP280;72317;37.280;-121.948;2023-08-31T06:59:12;100249.72;;;23.82
82636;BMP280;72317;37.280;-121.948;2023-08-31T07:01:38;100238.34;;;24.03
82636;BMP280;72317;37.280;-121.948;2023-08-31T07:04:04;100232.66;;;23.76
82636;BMP280;72317;37.280;-121.948;2023-08-31T07:06:33;100235.00;;;23.88
82636;BMP280;72317;37.280;-121.948;2023-08-31T07:08:59;100244.63;;;23.89
82636;BMP280;72317;37.280;-121.948;2023-08-31T07:11:25;100239.38;;;23.81
82636;BMP280;72317;37.280;-121.948;2023-08-31T07:13:53;100233.94;;;23.81
82636;BMP280;72317;37.280;-121.948;2023-08-31T07:16:19;100233.31;;;23.71
82636;BMP280;72317;37.280;-121.948;2023-08-31T07:18:45;100229.41;;;23.72
82636;BMP280;72317;37.280;-121.948;2023-08-31T07:21:11;100228.34;;;23.64
82636;BMP280;72317;37.280;-121.948;2023-08-31T07:23:37;100227.25;;;23.76
82636;BMP280;72317;37.280;-121.948;2023-08-31T07:26:04;100231.44;;;23.77
82636;BMP280;72317;37.280;-121.948;2023-08-31T07:28:30;100235.09;;;23.34
82636;BMP280;72317;37.280;-121.948;2023-08-31T07:31:07;100224.88;;;23.64
82636;BMP280;72317;37.280;-121.948;2023-08-31T07:33:34;100229.50;;;23.04
82636;BMP280;72317;37.280;-121.948;2023-08-31T07:36:01;100233.28;;;22.92
82636;BMP280;72317;37.280;-121.948;2023-08-31T07:38:30;100231.88;;;22.82
82636;BMP280;72317;37.280;-121.948;2023-08-31T07:40:56;100232.63;;;22.68
82636;BMP280;72317;37.280;-121.948;2023-08-31T07:43:22;100234.88;;;22.84
82636;BMP280;72317;37.280;-121.948;2023-08-31T07:45:49;100241.09;;;22.90
82636;BMP280;72317;37.280;-121.948;2023-08-31T07:48:15;100229.28;;;22.87
82636;BMP280;72317;37.280;-121.948;2023-08-31T07:50:42;100227.31;;;22.88
82636;BMP280;72317;37.280;-121.948;2023-08-31T07:53:08;100220.38;;;23.01
82636;BMP280;72317;37.280;-121.948;2023-08-31T07:55:34;100217.34;;;23.13
82636;BMP280;72317;37.280;-121.948;2023-08-31T07:58:01;100213.13;;;22.93
82636;BMP280;72317;37.280;-121.948;2023-08-31T08:00:27;100213.84;;;22.93
82636;BMP280;72317;37.280;-121.948;2023-08-31T08:02:53;100205.63;;;23.02
82636;BMP280;72317;37.280;-121.948;2023-08-31T08:05:20;100205.59;;;22.82
82636;BMP280;72317;37.280;-121.948;2023-08-31T08:07:46;100201.25;;;23.05
82636;BMP280;72317;37.280;-121.948;2023-08-31T08:10:13;100206.47;;;22.74
82636;BMP280;72317;37.280;-121.948;2023-08-31T08:12:42;100197.97;;;22.81
82636;BMP280;72317;37.280;-121.948;2023-08-31T08:15:12;100206.09;;;22.52
82636;BMP280;72317;37.280;-121.948;2023-08-31T08:17:39;100207.50;;;22.62
82636;BMP280;72317;37.280;-121.948;2023-08-31T08:20:06;100199.72;;;22.84
82636;BMP280;72317;37.280;-121.948;2023-08-31T08:22:32;100197.22;;;22.80
82636;BMP280;72317;37.280;-121.948;2023-08-31T08:25:00;100192.44;;;22.90
82636;BMP280;72317;37.280;-121.948;2023-08-31T08:27:27;100187.53;;;22.74
82636;BMP280;72317;37.280;-121.948;2023-08-31T08:29:53;100191.88;;;22.86
82636;BMP280;72317;37.280;-121.948;2023-08-31T08:32:19;100188.94;;;22.69
82636;BMP280;72317;37.280;-121.948;2023-08-31T08:34:45;100197.44;;;22.62
82636;BMP280;72317;37.280;-121.948;2023-08-31T08:37:11;100188.78;;;22.44
82636;BMP280;72317;37.280;-121.948;2023-08-31T08:39:37;100189.41;;;22.53
82636;BMP280;72317;37.280;-121.948;2023-08-31T08:42:04;100182.72;;;22.06
82636;BMP280;72317;37.280;-121.948;2023-08-31T08:44:33;100178.09;;;22.21
82636;BMP280;72317;37.280;-121.948;2023-08-31T08:47:01;100182.63;;;22.43
82636;BMP280;72317;37.280;-121.948;2023-08-31T08:49:31;100185.31;;;22.58
82636;BMP280;72317;37.280;-121.948;2023-08-31T08:51:59;100183.94;;;22.34
82636;BMP280;72317;37.280;-121.948;2023-08-31T08:54:25;100177.81;;;22.47
82636;BMP280;72317;37.280;-121.948;2023-08-31T08:56:53;100179.75;;;22.47
82636;BMP280;72317;37.280;-121.948;2023-08-31T08:59:19;100170.88;;;22.46
82636;BMP280;72317;37.280;-121.948;2023-08-31T09:01:46;100177.25;;;22.29
82636;BMP280;72317;37.280;-121.948;2023-08-31T09:04:12;100174.63;;;22.35
82636;BMP280;72317;37.280;-121.948;2023-08-31T09:06:38;100169.88;;;22.44
82636;BMP280;72317;37.280;-121.948;2023-08-31T09:09:05;100173.13;;;22.19
82636;BMP280;72317;37.280;-121.948;2023-08-31T09:11:35;100169.91;;;22.30
82636;BMP280;72317;37.280;-121.948;2023-08-31T09:14:14;100162.75;;;21.89
82636;BMP280;72317;37.280;-121.948;2023-08-31T09:16:44;100154.59;;;21.98
82636;BMP280;72317;37.280;-121.948;2023-08-31T09:19:19;100170.69;;;21.55
82636;BMP280;72317;37.280;-121.948;2023-08-31T09:21:47;100161.00;;;21.86
82636;BMP280;72317;37.280;-121.948;2023-08-31T09:24:14;100157.50;;;21.57
82636;BMP280;72317;37.280;-121.948;2023-08-31T09:26:58;100153.38;;;21.84
82636;BMP280;72317;37.280;-121.948;2023-08-31T09:29:25;100156.97;;;21.67
82636;BMP280;72317;37.280;-121.948;2023-08-31T09:31:51;100152.34;;;21.59
82636;BMP280;72317;37.280;-121.948;2023-08-31T09:34:18;100145.28;;;21.84
82636;BMP280;72317;37.280;-121.948;2023-08-31T09:36:44;100139.56;;;21.68
82636;BMP280;72317;37.280;-121.948;2023-08-31T09:39:12;100143.59;;;21.73
82636;BMP280;72317;37.280;-121.948;2023-08-31T09:41:55;100142.63;;;21.61
82636;BMP280;72317;37.280;-121.948;2023-08-31T09:44:22;100146.16;;;21.67
82636;BMP280;72317;37.280;-121.948;2023-08-31T09:46:48;100134.16;;;21.54
82636;BMP280;72317;37.280;-121.948;2023-08-31T09:49:16;100144.69;;;21.66
82636;BMP280;72317;37.280;-121.948;2023-08-31T09:51:48;100141.50;;;21.68
82636;BMP280;72317;37.280;-121.948;2023-08-31T09:54:17;100139.84;;;21.70
82636;BMP280;72317;37.280;-121.948;2023-08-31T09:56:45;100150.34;;;21.54
82636;BMP280;72317;37.280;-121.948;2023-08-31T09:59:14;100151.31;;;21.42
82636;BMP280;72317;37.280;-121.948;2023-08-31T10:01:42;100154.28;;;21.44
82636;BMP280;72317;37.280;-121.948;2023-08-31T10:04:08;100151.88;;;21.46
82636;BMP280;72317;37.280;-121.948;2023-08-31T10:06:35;100148.25;;;21.25
82636;BMP280;72317;37.280;-121.948;2023-08-31T10:09:05;100155.63;;;21.48
82636;BMP280;72317;37.280;-121.948;2023-08-31T10:11:32;100162.84;;;21.42
82636;BMP280;72317;37.280;-121.948;2023-08-31T10:13:59;100155.41;;;21.37
82636;BMP280;72317;37.280;-121.948;2023-08-31T10:16:26;100139.88;;;21.00
82636;BMP280;72317;37.280;-121.948;2023-08-31T10:18:56;100149.06;;;21.17
82636;BMP280;72317;37.280;-121.948;2023-08-31T10:21:23;100143.16;;;21.27
82636;BMP280;72317;37.280;-121.948;2023-08-31T10:23:50;100145.97;;;21.33
82636;BMP280;72317;37.280;-121.948;2023-08-31T10:26:30;100148.03;;;21.38
82636;BMP280;72317;37.280;-121.948;2023-08-31T10:28:58;100137.22;;;21.23
82636;BMP280;72317;37.280;-121.948;2023-08-31T10:31:28;100142.13;;;21.25
82636;BMP280;72317;37.280;-121.948;2023-08-31T10:34:02;100148.22;;;21.11
82636;BMP280;72317;37.280;-121.948;2023-08-31T10:36:44;100139.94;;;20.91
82636;BMP280;72317;37.280;-121.948;2023-08-31T10:39:15;100139.44;;;21.01
82636;BMP280;72317;37.280;-121.948;2023-08-31T10:41:51;100137.53;;;20.84
82636;BMP280;72317;37.280;-121.948;2023-08-31T10:44:22;100141.72;;;20.85
82636;BMP280;72317;37.280;-121.948;2023-08-31T10:46:49;100136.34;;;20.85
82636;BMP280;72317;37.280;-121.948;2023-08-31T10:49:18;100132.44;;;20.95
82636;BMP280;72317;37.280;-121.948;2023-08-31T10:51:46;100131.31;;;20.78
82636;BMP280;72317;37.280;-121.948;2023-08-31T10:59:33;100128.09;;;20.89
82636;BMP280;72317;37.280;-121.948;2023-08-31T11:02:07;100132.06;;;20.79
82636;BMP280;72317;37.280;-121.948;2023-08-31T11:04:53;100134.94;;;20.98
82636;BMP280;72317;37.280;-121.948;2023-08-31T11:07:23;100138.69;;;20.60
82636;BMP280;72317;37.280;-121.948;2023-08-31T11:09:49;100140.06;;;20.55
82636;BMP280;72317;37.280;-121.948;2023-08-31T11:12:16;100145.19;;;20.44
82636;BMP280;72317;37.280;-121.948;2023-08-31T11:14:42;100150.94;;;20.70
82636;BMP280;72317;37.280;-121.948;2023-08-31T11:17:09;100145.31;;;20.50
82636;BMP280;72317;37.280;-121.948;2023-08-31T11:19:38;100145.34;;;20.41
82636;BMP280;72317;37.280;-121.948;2023-08-31T11:22:04;100137.56;;;20.43
82636;BMP280;72317;37.280;-121.948;2023-08-31T11:24:32;100135.34;;;20.32
82636;BMP280;72317;37.280;-121.948;2023-08-31T11:26:59;100133.91;;;20.23
82636;BMP280;72317;37.280;-121.948;2023-08-31T11:29:25;100144.06;;;20.10
82636;BMP280;72317;37.280;-121.948;2023-08-31T11:31:56;100135.38;;;20.23
82636;BMP280;72317;37.280;-121.948;2023-08-31T11:34:23;100141.38;;;20.19
82636;BMP280;72317;37.280;-121.948;2023-08-31T11:36:49;100144.31;;;20.29
82636;BMP280;72317;37.280;-121.948;2023-08-31T11:39:17;100137.44;;;20.28
82636;BMP280;72317;37.280;-121.948;2023-08-31T11:41:44;100140.13;;;20.37
82636;BMP280;72317;37.280;-121.948;2023-08-31T11:44:13;100141.28;;;20.54
82636;BMP280;72317;37.280;-121.948;2023-08-31T11:46:42;100129.31;;;20.46
82636;BMP280;72317;37.280;-121.948;2023-08-31T11:49:09;100134.06;;;20.19
82636;BMP280;72317;37.280;-121.948;2023-08-31T11:51:36;100122.97;;;20.26
82636;BMP280;72317;37.280;-121.948;2023-08-31T11:54:05;100126.56;;;19.96
82636;BMP280;72317;37.280;-121.948;2023-08-31T11:56:44;100131.81;;;19.82
82636;BMP280;72317;37.280;-121.948;2023-08-31T11:59:18;100132.09;;;19.93
82636;BMP280;72317;37.280;-121.948;2023-08-31T12:01:49;100126.44;;;19.64
82636;BMP280;72317;37.280;-121.948;2023-08-31T12:04:19;100122.13;;;19.84
82636;BMP280;72317;37.280;-121.948;2023-08-31T12:06:53;100123.31;;;19.74
82636;BMP280;72317;37.280;-121.948;2023-08-31T12:09:27;100135.25;;;19.73
82636;BMP280;72317;37.280;-121.948;2023-08-31T12:11:54;100130.94;;;19.85
82636;BMP280;72317;37.280;-121.948;2023-08-31T12:14:24;100130.19;;;19.75
82636;BMP280;72317;37.280;-121.948;2023-08-31T12:16:51;100118.19;;;20.03
82636;BMP280;72317;37.280;-121.948;2023-08-31T12:19:18;100125.38;;;19.97
82636;BMP280;72317;37.280;-121.948;2023-08-31T12:21:46;100124.50;;;19.55
82636;BMP280;72317;37.280;-121.948;2023-08-31T12:24:12;100121.69;;;19.86
82636;BMP280;72317;37.280;-121.948;2023-08-31T12:26:40;100128.69;;;19.65
82636;BMP280;72317;37.280;-121.948;2023-08-31T12:29:07;100131.38;;;19.83
82636;BMP280;72317;37.280;-121.948;2023-08-31T12:31:33;100140.78;;;19.88
82636;BMP280;72317;37.280;-121.948;2023-08-31T12:33:59;100151.84;;;19.63
82636;BMP280;72317;37.280;-121.948;2023-08-31T12:36:26;100146.44;;;19.99
82636;BMP280;72317;37.280;-121.948;2023-08-31T12:38:52;100147.78;;;20.12
82636;BMP280;72317;37.280;-121.948;2023-08-31T12:41:18;100145.25;;;20.18
82636;BMP280;72317;37.280;-121.948;2023-08-31T12:43:46;100151.25;;;20.22
82636;BMP280;72317;37.280;-121.948;2023-08-31T12:46:12;100155.09;;;20.29
82636;BMP280;72317;37.280;-121.948;2023-08-31T12:48:40;100154.50;;;20.17
82636;BMP280;72317;37.280;-121.948;2023-08-31T12:51:06;100153.47;;;20.14
82636;BMP280;72317;37.280;-121.948;2023-08-31T12:53:32;100153.94;;;20.22
82636;BMP280;72317;37.280;-121.948;2023-08-31T12:56:03;100157.22;;;20.17
82636;BMP280;72317;37.280;-121.948;2023-08-31T12:58:29;100159.78;;;19.84
82636;BMP280;72317;37.280;-121.948;2023-08-31T13:00:58;100170.09;;;19.95
82636;BMP280;72317;37.280;-121.948;2023-08-31T13:03:25;100172.78;;;20.13
82636;BMP280;72317;37.280;-121.948;2023-08-31T13:05:51;100175.31;;;20.07
82636;BMP280;72317;37.280;-121.948;2023-08-31T13:08:17;100177.69;;;19.87
82636;BMP280;72317;37.280;-121.948;2023-08-31T13:10:51;100173.50;;;19.59
82636;BMP280;72317;37.280;-121.948;2023-08-31T13:13:18;100179.94;;;19.71
82636;BMP280;72317;37.280;-121.948;2023-08-31T13:15:48;100184.09;;;19.63
82636;BMP280;72317;37.280;-121.948;2023-08-31T13:18:15;100184.69;;;19.49
82636;BMP280;72317;37.280;-121.948;2023-08-31T13:20:48;100179.78;;;19.65
82636;BMP280;72317;37.280;-121.948;2023-08-31T13:23:14;100172.44;;;19.48
82636;BMP280;72317;37.280;-121.948;2023-08-31T13:25:40;100187.72;;;19.69
82636;BMP280;72317;37.280;-121.948;2023-08-31T13:28:06;100186.03;;;19.53
82636;BMP280;72317;37.280;-121.948;2023-08-31T13:30:32;100187.53;;;19.54
82636;BMP280;72317;37.280;-121.948;2023-08-31T13:32:59;100184.38;;;19.56
82636;BMP280;72317;37.280;-121.948;2023-08-31T13:35:25;100193.78;;;19.51
82636;BMP280;72317;37.280;-121.948;2023-08-31T13:37:51;100193.22;;;19.65